Oscar Lindelof

Recruteur en chef - Malmo FF
21 Nov 2027
Dimanche
Processus

Personnalité

Adaptabilité (2) Ambition (11) Controverse (12) Loyauté (14) Pression (17) Professionnalisme (2) Sportivité (5) Tempérament (1)

Profil

Style d'entraînement Démocratique
Diplôme Continental B
Détermination 11
Gestion des joueurs 13
Motivation 5
Discipline 8
Satisfaction professionnelle
100%
Fatigue
0%
Rôle Recruteur en chef
Salaire 54.6K p/s
Contrat 14.03.2028

Performance

Comportement Bon
Efficacité de l'entraînement
43%
Développement des joueurs
55%
Prévention des blessures
45%
Mise en place tactique
45%

Événements récents

A participé à une réunion de recrutement maintenant
A recommandé une cible de transfert maintenant
A recommandé une cible de transfert maintenant
A recommandé une cible de transfert maintenant
A recommandé une cible de transfert maintenant
A recommandé une cible de transfert maintenant
A recommandé une cible de transfert maintenant
A recommandé une cible de transfert maintenant

Suivi en cours

116
Joueur Club Statut Capacité Confiance Observé Dernière observation Dernier vote
Lucas Assadi AIK Actif 130 / 125 65% 1 26.07.2027 Approuver
Pedro de la Vega Columbus Crew Actif 133 / 134 66% 1 16.07.2027 Approuver
Noah Persson Hammarby Actif 111 / 128 65% 1 16.07.2027 Approuver
Assane Diao Como Actif 154 / 157 40% 1 15.07.2027 -
Keinan Davis Udinese Actif 142 / 123 40% 1 15.07.2027 -
Nicolò Zaniolo Udinese Actif 152 / 146 40% 1 15.07.2027 -
Noah Lundström Gefle Actif 94 / 94 30% 1 / 1m 07.07.2027 -
Alen Zahirović Gefle Actif 78 / 81 30% 1 / 1m 05.05.2027 -
Jacob Widell Zetterström Derby County Actif 138 / 118 40% 2 08.03.2027 -
Arijanet Murić Sassuolo Actif 136 / 132 40% 1 08.03.2027 -
Caoimhin Kelleher Brentford Actif 151 / 152 40% 1 17.02.2027 -
Alex Meret Napoli Actif 159 / 160 40% 2 16.02.2027 -
Anthony Patterson Wrexham Actif 121 / 134 40% 2 15.02.2027 -
Robin Roefs Sunderland Actif 149 / 153 40% 3 05.02.2027 -
Radek Vítek Middlesbrough Actif 138 / 132 40% 1 04.02.2027 -
Adrian Svanbäck BK Hacken Actif 112 / 129 62% 1 02.02.2027 Approuver
Facundo Torres Shakhtar Négociation 134 / 134 67% 1 01.02.2027 Approuver
Nicolás Fernández Mercau FC Copenhagen Actif 134 / 134 90% 1 01.02.2027 Approuver
Igoh Ogbu Fenerbahce Actif 146 / 146 66% 1 01.02.2027 Approuver
Konstantin Tyukavin Osasuna Négociation 132 / 133 66% 1 01.02.2027 Approuver
Martin Cedidla Shakhtar Actif 131 / 132 66% 1 01.02.2027 Approuver
Ollie Watkins Al-Hilal Actif 160 / 152 40% 2 31.01.2027 -
Yousef Salech Cardiff City Actif 117 / 124 40% 1 30.01.2027 -
Dominic Calvert-Lewin Leeds United Actif 149 / 147 40% 1 30.01.2027 -
Ivan Toney Al-Ahli Actif 159 / 137 40% 6 28.01.2027 -
Emmanuel Boateng Hapoel Tel Aviv Actif 117 / 111 40% 2 26.01.2027 -
Zian Flemming Ipswich Town Actif 124 / 125 40% 1 26.01.2027 -
Elia Caprile Cagliari Actif 144 / 153 40% 1 26.01.2027 -
Edoardo Bove Watford Actif 127 / 141 40% 1 25.01.2027 -
Tomáš Chorý Slavia Prague Actif 135 / 153 40% 7 23.01.2027 -
Tyrese Campbell Sheffield United Actif 126 / 117 40% 1 23.01.2027 -
Nordi Mukiele Sunderland Actif 143 / 155 40% 1 23.01.2027 -
Mohammad Vafaei Foolad Actif 113 / 103 40% 1 21.01.2027 -
Rhian Brewster Oleksandriya Actif 112 / 107 40% 2 20.01.2027 -
Ilyas Ansah Hull City Actif 135 / 129 40% 1 19.01.2027 -
Kyle Wootton Stockport County Actif 114 / 129 40% 2 18.01.2027 -
Oli McBurnie Hull City Actif 134 / 139 40% 1 16.01.2027 -
Julián Quiñones Al-Qadisiyah Actif 149 / 138 40% 6 15.01.2027 -
Callum O'Hare Sheffield United Actif 137 / 121 40% 1 15.01.2027 -
Sławomir Abramowicz Jagiellonia Actif 124 / 134 40% 1 15.01.2027 -
Aune Heggebø West Bromwich Albion Actif 123 / 117 40% 2 13.01.2027 -
Michael Cooper Sheffield United Actif 136 / 134 40% 1 13.01.2027 -
Fran Vieites Walsall Actif 124 / 118 40% 1 12.01.2027 -
Will Dennis Milton Keynes Dons Actif 105 / 96 40% 1 12.01.2027 -
Patrick Cutrone Monza Actif 130 / 131 40% 2 10.01.2027 -
Jan Bačkovský Dukla Prague Actif 100 / 107 40% 1 09.01.2027 -
George Wickens Lincoln City Actif 124 / 127 40% 1 09.01.2027 -
Jonathan Dellarossa Lokomotiv Plovdiv Actif 110 / 130 40% 1 07.01.2027 -
Steven Bergwijn Al-Ittihad Actif 160 / 145 40% 3 02.01.2027 -
Ivan Pakholiuk Kolos Actif 103 / 107 40% 2 28.12.2026 -
Edu Expósito Espanyol Actif 133 / 146 40% 1 28.12.2026 -
Dara O'Shea Ipswich Town Actif 129 / 140 40% 1 28.12.2026 -
Joe Gelhardt Hull City Actif 127 / 127 40% 1 21.12.2026 -
Josh Windass Wrexham Actif 125 / 117 40% 1 21.12.2026 -
Domagoj Drožđek Tractor Actif 138 / 144 40% 2 18.12.2026 -
Sota Kitano Red Bull Salzburg Actif 125 / 126 40% 3 16.12.2026 -
Veljko Birmančević Ferencvaros Actif 125 / 137 40% 3 14.12.2026 -
Dwight McNeil Crystal Palace Actif 147 / 125 40% 1 10.12.2026 -
Samuel Brolin Kalmar FF Actif 122 / 100 40% 3 09.12.2026 -
Roman Celentano FC Cincinnati Actif 130 / 134 40% 1 09.12.2026 -
James Trafford Leeds United Actif 133 / 154 40% 1 08.12.2026 -
Zach Hemming Chesterfield Actif 112 / 107 40% 1 03.12.2026 -
Franko Kolić Istra 1961 Actif 99 / 100 40% 1 03.12.2026 -
Maduka Okoye Udinese Actif 143 / 133 40% 1 02.12.2026 -
Alexey Miranchuk Atlanta United FC Actif 156 / 143 40% 4 30.11.2026 -
Lazar Marković Apollon Actif 136 / 147 40% 1 29.11.2026 -
Matevž Vidovšek Olimpija Ljubljana Actif 135 / 131 40% 2 24.11.2026 -
Tadeo Allende Inter Miami CF Actif 119 / 127 40% 2 20.11.2026 -
Bongani Khune SuperSport United Actif 142 / 131 40% 2 18.11.2026 -
Yorbe Vertessen Red Bull Salzburg Actif 123 / 128 40% 3 14.11.2026 -
Haris Tabaković Red Bull Salzburg Actif 135 / 142 40% 1 14.11.2026 -
Lukas Gütlbauer Wolfsberger AC Actif 113 / 107 40% 2 12.11.2026 -
Diego Enríquez Sporting Cristal Actif 113 / 132 40% 1 11.11.2026 -
Ibrahim Saeed Al Shabab Actif 139 / 117 40% 1 08.11.2026 -
Dimitar Sheytanov CSKA 1948 Actif 106 / 126 40% 1 08.11.2026 -
Wessam Abou Ali Columbus Crew Actif 132 / 123 40% 2 03.11.2026 -
Petar Musa FC Dallas Actif 130 / 156 40% 4 31.10.2026 -
Mamadou Sylla Al-Riyadh Actif 112 / 139 40% 2 30.10.2026 -
Assad Al Hamlawi Universitatea Craiova Actif 115 / 101 40% 1 30.10.2026 -
Bongani Zungu Ajax Cape Town Actif 135 / 144 40% 1 29.10.2026 -
Marcelo Allende Mamelodi Sundowns Actif 122 / 110 40% 1 29.10.2026 -
Jesus Ferreira Seattle Sounders Actif 133 / 119 40% 8 27.10.2026 -
Germán Berterame Inter Miami CF Actif 132 / 121 40% 5 27.10.2026 -
Ľubomír Belko Viking Actif 121 / 120 40% 2 24.10.2026 -
Duncan McGuire Houston Dynamo Actif 121 / 111 40% 3 15.10.2026 -
Timo Werner San Jose Earthquakes Actif 122 / 146 40% 1 12.10.2026 -
Andrei Vlad Petrolul Actif 110 / 105 40% 1 12.10.2026 -
Daniel Karlsbakk Sarpsborg 08 Actif 131 / 126 40% 1 08.10.2026 -
Marco Pašalić Orlando City Actif 116 / 139 40% 1 06.10.2026 -
Max Fenger Helsingborg Actif 120 / 112 40% 1 04.10.2026 -
João Klauss LA Galaxy Actif 130 / 126 40% 4 01.10.2026 -
John Pulskamp Sporting Kansas City Actif 115 / 126 40% 2 30.09.2026 -
Dániel Gazdag New England Revolution Actif 140 / 149 40% 2 22.09.2026 -
Bénie Traoré New York City Actif 120 / 123 40% 3 19.09.2026 -
Kelvin Yeboah Minnesota United FC Actif 138 / 142 40% 2 18.09.2026 -
Jordan Morris Seattle Sounders Actif 121 / 139 40% 2 18.09.2026 -
Oliver Petersen Odd Actif 115 / 106 40% 1 18.09.2026 -
Filip Marschall Stevenage Actif 111 / 107 40% 1 15.09.2026 -
Josh Sargent Toronto FC Actif 120 / 146 40% 2 10.09.2026 -
Joaquín Pereyra Minnesota United FC Actif 137 / 112 40% 1 10.09.2026 -
João Félix Dinamo Moscow Actif 137 / 166 40% 1 05.09.2026 -
Leonardo Campana New England Revolution Actif 111 / 106 40% 1 04.09.2026 -
Morgan Guilavogui Real Salt Lake Actif 113 / 139 40% 1 03.09.2026 -
Kévin Denkey FC Cincinnati Actif 132 / 122 40% 1 02.09.2026 -
Ezequiel Ávila Partizan Actif 126 / 140 40% 1 31.08.2026 -
Marcus Ingvartsen San Diego Football Club Actif 133 / 106 40% 1 31.08.2026 -
Sam Surridge Nashville SC Actif 118 / 139 40% 1 29.08.2026 -
Dejan Joveljić Seattle Sounders Actif 136 / 142 40% 1 27.08.2026 -
Guilherme Houston Dynamo Actif 116 / 140 40% 1 27.08.2026 -
Cheikh Sabaly Vancouver Whitecaps Actif 126 / 127 40% 1 24.08.2026 -
Pep Biel Charlotte Football Club Actif 125 / 115 40% 1 21.08.2026 -
Ivan Schranz Slavia Prague Actif 133 / 142 40% 1 20.08.2026 -
Abduvohid Ne'matov Nasaf Actif 108 / 107 40% 1 20.08.2026 -
Lucas Verza Olimpia Actif 113 / 98 40% 1 20.08.2026 -
Myrto Uzuni Austin FC Actif 118 / 152 40% 1 11.08.2026 -
Martín Ojeda Orlando City Actif 121 / 113 40% 1 11.08.2026 -